createdAt,value
2019-04-04T00:22:58.773Z,11.28
2019-04-04T00:25:46.955Z,10.63
2019-04-04T01:05:19.295Z,13.05
2019-04-04T01:08:07.530Z,12.75
2019-04-04T01:10:55.124Z,13.48
2019-04-04T05:20:37.954Z,9.73
2019-04-04T07:23:48.538Z,9.95
2019-04-04T08:07:03.888Z,10.55
2019-04-04T08:19:06.500Z,8.10
2019-04-04T08:21:53.720Z,8.58
2019-04-04T08:24:40.090Z,8.90
2019-04-04T08:27:26.777Z,8.90
2019-04-04T08:30:12.050Z,9.80
2019-04-04T08:45:15.838Z,8.90
2019-04-04T08:48:02.391Z,10.88
2019-04-04T08:50:50.500Z,8.58
2019-04-04T09:55:41.711Z,18.20
2019-04-04T11:37:16.993Z,7.78
2019-04-04T12:11:16.057Z,8.05
2019-04-04T12:26:18.676Z,5.42
2019-04-04T12:29:06.736Z,5.83
2019-04-04T13:20:40.646Z,5.12
2019-04-04T13:23:28.233Z,4.70
2019-04-04T13:26:14.703Z,4.67
2019-04-04T13:29:02.096Z,6.95
2019-04-04T13:31:48.496Z,4.97
2019-04-04T13:34:35.149Z,6.40
2019-04-04T13:37:21.634Z,6.28
2019-04-04T13:40:08.218Z,6.17
2019-04-04T13:42:54.626Z,6.62
2019-04-04T13:45:42.086Z,6.30
2019-04-04T13:48:28.724Z,7.78
2019-04-04T13:51:15.173Z,5.28
2019-04-04T13:54:01.668Z,5.50
2019-04-04T13:56:48.125Z,4.55
2019-04-04T13:59:35.138Z,6.35
2019-04-04T14:02:22.537Z,6.25
2019-04-04T14:08:01.414Z,5.00
2019-04-04T14:10:57.556Z,6.20
2019-04-04T14:13:37.717Z,4.47
2019-04-04T14:19:16.083Z,5.70
2019-04-04T14:22:02.501Z,5.40
2019-04-04T14:24:49.583Z,4.78
2019-04-04T14:27:36.482Z,6.97
2019-04-04T14:30:22.913Z,6.65
2019-04-04T14:33:09.645Z,6.42
2019-04-04T14:35:56.098Z,5.22
2019-04-04T14:38:42.698Z,5.85
2019-04-04T14:41:29.245Z,6.05
2019-04-04T14:44:16.720Z,5.10
2019-04-04T14:47:04.091Z,6.33
2019-04-04T14:49:51.443Z,4.67
2019-04-04T14:52:39.600Z,5.10
2019-04-04T14:55:27.038Z,4.55
2019-04-04T15:01:02.704Z,4.05
2019-04-04T15:03:49.369Z,5.67
2019-04-04T15:06:36.835Z,4.15
2019-04-04T15:12:13.385Z,10.23
2019-04-04T15:14:59.906Z,8.43
2019-04-04T15:17:46.570Z,6.17
2019-04-04T15:20:33.848Z,6.50
2019-04-04T15:23:20.368Z,5.50
2019-04-04T15:26:09.674Z,5.87
2019-04-04T15:34:28.320Z,6.40
2019-04-04T15:37:15.706Z,5.30
2019-04-04T15:40:03.966Z,6.40
2019-04-04T15:42:50.430Z,5.55
2019-04-04T15:45:34.857Z,5.33
2019-04-04T16:19:09.892Z,6.28
2019-04-04T16:21:58.032Z,6.97
2019-04-04T16:24:46.153Z,6.05
2019-04-04T18:58:13.156Z,17.45
2019-04-04T19:03:37.401Z,16.27
2019-04-04T19:21:32.648Z,19.60
2019-04-04T19:24:20.922Z,21.57
2019-04-04T19:39:16.435Z,25.50
2019-04-04T19:42:05.094Z,26.60
2019-04-04T23:55:02.149Z,34.20
